sensor_id;sensor_type;location;lat;lon;timestamp;pressure;altitude;pressure_sealevel;temperature;humidity
57616;BME280;43816;52.054;-9.494;2023-02-13T00:00:10;102270.09;;;19.26;37.58
57616;BME280;43816;52.054;-9.494;2023-02-13T00:00:23;102270.38;;;19.22;37.72
57616;BME280;43816;52.054;-9.494;2023-02-13T00:00:34;102285.94;;;19.32;37.77
57616;BME280;43816;52.054;-9.494;2023-02-13T00:00:45;102274.53;;;19.27;37.94
57616;BME280;43816;52.054;-9.494;2023-02-13T00:00:56;102262.91;;;19.25;37.98
57616;BME280;43816;52.054;-9.494;2023-02-13T00:01:06;102277.13;;;19.28;37.90
57616;BME280;43816;52.054;-9.494;2023-02-13T00:01:16;102283.34;;;19.30;37.90
57616;BME280;43816;52.054;-9.494;2023-02-13T00:01:27;102268.50;;;19.23;37.82
57616;BME280;43816;52.054;-9.494;2023-02-13T00:01:37;102268.63;;;19.21;38.24
57616;BME280;43816;52.054;-9.494;2023-02-13T00:01:47;102287.78;;;19.31;37.72
57616;BME280;43816;52.054;-9.494;2023-02-13T00:01:58;102271.66;;;19.28;37.86
57616;BME280;43816;52.054;-9.494;2023-02-13T00:02:08;102283.34;;;19.30;37.74
57616;BME280;43816;52.054;-9.494;2023-02-13T00:02:19;102278.00;;;19.29;37.81
57616;BME280;43816;52.054;-9.494;2023-02-13T00:02:29;102272.25;;;19.22;37.69
57616;BME280;43816;52.054;-9.494;2023-02-13T00:02:39;102266.66;;;19.23;37.78
57616;BME280;43816;52.054;-9.494;2023-02-13T00:02:50;102280.59;;;19.30;37.82
57616;BME280;43816;52.054;-9.494;2023-02-13T00:03:01;102284.19;;;19.31;37.83
57616;BME280;43816;52.054;-9.494;2023-02-13T00:03:11;102264.06;;;19.22;37.69
57616;BME280;43816;52.054;-9.494;2023-02-13T00:03:21;102264.19;;;19.20;37.99
57616;BME280;43816;52.054;-9.494;2023-02-13T00:03:32;102272.38;;;19.20;37.93
57616;BME280;43816;52.054;-9.494;2023-02-13T00:03:42;102271.81;;;19.27;37.84
57616;BME280;43816;52.054;-9.494;2023-02-13T00:03:52;102285.19;;;19.30;37.78
57616;BME280;43816;52.054;-9.494;2023-02-13T00:04:03;102271.22;;;19.23;37.85
57616;BME280;43816;52.054;-9.494;2023-02-13T00:04:13;102274.84;;;19.23;38.00
57616;BME280;43816;52.054;-9.494;2023-02-13T00:04:23;102277.88;;;19.30;37.80
57616;BME280;43816;52.054;-9.494;2023-02-13T00:04:34;102280.00;;;19.27;37.92
57616;BME280;43816;52.054;-9.494;2023-02-13T00:04:44;102284.47;;;19.28;37.84
57616;BME280;43816;52.054;-9.494;2023-02-13T00:04:54;102281.00;;;19.26;37.88
57616;BME280;43816;52.054;-9.494;2023-02-13T00:05:05;102271.34;;;19.21;37.86
57616;BME280;43816;52.054;-9.494;2023-02-13T00:05:15;102277.41;;;19.25;37.71
57616;BME280;43816;52.054;-9.494;2023-02-13T00:05:26;102257.53;;;19.13;37.77
57616;BME280;43816;52.054;-9.494;2023-02-13T00:05:36;102281.59;;;19.29;37.62
57616;BME280;43816;52.054;-9.494;2023-02-13T00:05:46;102267.63;;;19.22;37.73
57616;BME280;43816;52.054;-9.494;2023-02-13T00:05:57;102280.75;;;19.29;37.66
57616;BME280;43816;52.054;-9.494;2023-02-13T00:06:07;102283.47;;;19.29;37.84
57616;BME280;43816;52.054;-9.494;2023-02-13T00:06:17;102282.72;;;19.27;37.74
57616;BME280;43816;52.054;-9.494;2023-02-13T00:06:28;102266.66;;;19.23;37.73
57616;BME280;43816;52.054;-9.494;2023-02-13T00:06:38;102268.63;;;19.21;37.87
57616;BME280;43816;52.054;-9.494;2023-02-13T00:06:48;102279.28;;;19.25;37.96
57616;BME280;43816;52.054;-9.494;2023-02-13T00:06:58;102271.09;;;19.25;37.86
57616;BME280;43816;52.054;-9.494;2023-02-13T00:07:09;102269.50;;;19.22;37.89
57616;BME280;43816;52.054;-9.494;2023-02-13T00:07:20;102275.69;;;19.24;38.12
57616;BME280;43816;52.054;-9.494;2023-02-13T00:07:30;102270.38;;;19.22;37.91
57616;BME280;43816;52.054;-9.494;2023-02-13T00:07:40;102285.31;;;19.28;37.75
57616;BME280;43816;52.054;-9.494;2023-02-13T00:07:51;102283.47;;;19.29;37.95
57616;BME280;43816;52.054;-9.494;2023-02-13T00:08:01;102267.78;;;19.21;38.04
57616;BME280;43816;52.054;-9.494;2023-02-13T00:08:11;102275.56;;;19.26;38.10
57616;BME280;43816;52.054;-9.494;2023-02-13T00:08:22;102266.03;;;19.20;37.92
57616;BME280;43816;52.054;-9.494;2023-02-13T00:08:32;102280.75;;;19.29;37.94
57616;BME280;43816;52.054;-9.494;2023-02-13T00:08:42;102282.59;;;19.28;37.93
57616;BME280;43816;52.054;-9.494;2023-02-13T00:08:53;102278.28;;;19.26;37.97
57616;BME280;43816;52.054;-9.494;2023-02-13T00:09:03;102280.75;;;19.29;38.02
57616;BME280;43816;52.054;-9.494;2023-02-13T00:09:13;102272.97;;;19.24;38.23
57616;BME280;43816;52.054;-9.494;2023-02-13T00:09:24;102270.94;;;19.26;38.10
57616;BME280;43816;52.054;-9.494;2023-02-13T00:09:34;102276.09;;;19.19;37.88
57616;BME280;43816;52.054;-9.494;2023-02-13T00:09:44;102268.03;;;19.18;38.06
57616;BME280;43816;52.054;-9.494;2023-02-13T00:09:55;102286.19;;;19.29;38.33
57616;BME280;43816;52.054;-9.494;2023-02-13T00:10:06;102280.75;;;19.29;38.18
57616;BME280;43816;52.054;-9.494;2023-02-13T00:10:16;102273.81;;;19.25;37.89
57616;BME280;43816;52.054;-9.494;2023-02-13T00:10:27;102271.34;;;19.21;38.16
57616;BME280;43816;52.054;-9.494;2023-02-13T00:10:37;102276.28;;;19.28;38.33
57616;BME280;43816;52.054;-9.494;2023-02-13T00:10:48;102279.00;;;19.28;38.07
57616;BME280;43816;52.054;-9.494;2023-02-13T00:10:58;102274.97;;;19.22;38.15
57616;BME280;43816;52.054;-9.494;2023-02-13T00:11:09;102281.72;;;19.28;38.24
57616;BME280;43816;52.054;-9.494;2023-02-13T00:11:19;102277.41;;;19.25;38.29
57616;BME280;43816;52.054;-9.494;2023-02-13T00:11:29;102246.19;;;19.08;38.16
57616;BME280;43816;52.054;-9.494;2023-02-13T00:11:40;102283.03;;;19.23;38.14
57616;BME280;43816;52.054;-9.494;2023-02-13T00:11:50;102282.72;;;19.27;38.16
57616;BME280;43816;52.054;-9.494;2023-02-13T00:12:00;102280.75;;;19.29;38.23
57616;BME280;43816;52.054;-9.494;2023-02-13T00:12:10;102280.75;;;19.29;38.28
57616;BME280;43816;52.054;-9.494;2023-02-13T00:12:21;102273.81;;;19.25;38.18
57616;BME280;43816;52.054;-9.494;2023-02-13T00:12:31;102275.56;;;19.26;38.55
57616;BME280;43816;52.054;-9.494;2023-02-13T00:12:41;102269.50;;;19.22;37.99
57616;BME280;43816;52.054;-9.494;2023-02-13T00:12:52;102265.03;;;19.21;38.02
57616;BME280;43816;52.054;-9.494;2023-02-13T00:13:02;102256.69;;;19.13;38.03
57616;BME280;43816;52.054;-9.494;2023-02-13T00:13:13;102263.44;;;19.18;38.00
57616;BME280;43816;52.054;-9.494;2023-02-13T00:13:23;102268.19;;;19.16;37.84
57616;BME280;43816;52.054;-9.494;2023-02-13T00:13:34;102272.09;;;19.23;38.04
57616;BME280;43816;52.054;-9.494;2023-02-13T00:13:44;102289.91;;;19.28;37.94
57616;BME280;43816;52.054;-9.494;2023-02-13T00:13:54;102263.63;;;19.17;37.89
57616;BME280;43816;52.054;-9.494;2023-02-13T00:14:04;102272.97;;;19.24;37.93
57616;BME280;43816;52.054;-9.494;2023-02-13T00:14:15;102272.97;;;19.24;37.86
57616;BME280;43816;52.054;-9.494;2023-02-13T00:14:25;102277.13;;;19.28;37.79
57616;BME280;43816;52.054;-9.494;2023-02-13T00:14:37;102281.72;;;19.28;37.58
57616;BME280;43816;52.054;-9.494;2023-02-13T00:14:47;102274.84;;;19.23;37.79
57616;BME280;43816;52.054;-9.494;2023-02-13T00:14:58;102265.19;;;19.19;37.85
57616;BME280;43816;52.054;-9.494;2023-02-13T00:15:08;102280.75;;;19.29;37.78
57616;BME280;43816;52.054;-9.494;2023-02-13T00:15:19;102272.69;;;19.27;37.87
57616;BME280;43816;52.054;-9.494;2023-02-13T00:15:29;102257.41;;;19.15;37.66
57616;BME280;43816;52.054;-9.494;2023-02-13T00:15:39;102273.53;;;19.28;37.83
57616;BME280;43816;52.054;-9.494;2023-02-13T00:16:01;102272.97;;;19.24;37.78
57616;BME280;43816;52.054;-9.494;2023-02-13T00:16:12;102261.75;;;19.17;37.93
57616;BME280;43816;52.054;-9.494;2023-02-13T00:16:22;102249.34;;;19.13;37.93
57616;BME280;43816;52.054;-9.494;2023-02-13T00:16:33;102274.97;;;19.22;37.87
57616;BME280;43816;52.054;-9.494;2023-02-13T00:16:43;102267.91;;;19.19;37.56
57616;BME280;43816;52.054;-9.494;2023-02-13T00:16:53;102272.25;;;19.22;37.67
57616;BME280;43816;52.054;-9.494;2023-02-13T00:17:04;102283.59;;;19.27;37.68
57616;BME280;43816;52.054;-9.494;2023-02-13T00:17:15;102270.22;;;19.24;37.84
57616;BME280;43816;52.054;-9.494;2023-02-13T00:17:26;102282.72;;;19.27;37.80
57616;BME280;43816;52.054;-9.494;2023-02-13T00:17:36;102263.03;;;19.23;37.49
57616;BME280;43816;52.054;-9.494;2023-02-13T00:17:46;102261.47;;;19.20;37.83
57616;BME280;43816;52.054;-9.494;2023-02-13T00:17:57;102251.09;;;19.14;37.82
57616;BME280;43816;52.054;-9.494;2023-02-13T00:18:07;102263.31;;;19.20;37.79
57616;BME280;43816;52.054;-9.494;2023-02-13T00:18:17;102262.19;;;19.22;37.81
57616;BME280;43816;52.054;-9.494;2023-02-13T00:18:28;102263.16;;;19.21;37.80
57616;BME280;43816;52.054;-9.494;2023-02-13T00:18:39;102270.38;;;19.22;37.95
57616;BME280;43816;52.054;-9.494;2023-02-13T00:18:49;102277.25;;;19.27;37.93
57616;BME280;43816;52.054;-9.494;2023-02-13T00:18:59;102273.81;;;19.25;37.76
57616;BME280;43816;52.054;-9.494;2023-02-13T00:19:10;102274.53;;;19.27;38.04
57616;BME280;43816;52.054;-9.494;2023-02-13T00:19:20;102271.22;;;19.23;37.85
57616;BME280;43816;52.054;-9.494;2023-02-13T00:19:30;102275.56;;;19.26;38.05
57616;BME280;43816;52.054;-9.494;2023-02-13T00:19:41;102268.63;;;19.21;37.89
57616;BME280;43816;52.054;-9.494;2023-02-13T00:19:51;102273.94;;;19.23;37.76
57616;BME280;43816;52.054;-9.494;2023-02-13T00:20:02;102266.03;;;19.20;37.80
57616;BME280;43816;52.054;-9.494;2023-02-13T00:20:13;102262.91;;;19.25;37.82
57616;BME280;43816;52.054;-9.494;2023-02-13T00:20:23;102269.38;;;19.23;37.84
57616;BME280;43816;52.054;-9.494;2023-02-13T00:20:33;102269.38;;;19.23;38.01
57616;BME280;43816;52.054;-9.494;2023-02-13T00:20:44;102277.25;;;19.27;37.99
57616;BME280;43816;52.054;-9.494;2023-02-13T00:21:02;102269.22;;;19.25;37.88
57616;BME280;43816;52.054;-9.494;2023-02-13T00:21:13;102275.56;;;19.26;37.85
57616;BME280;43816;52.054;-9.494;2023-02-13T00:21:23;102263.44;;;19.18;37.82
57616;BME280;43816;52.054;-9.494;2023-02-13T00:21:34;102263.16;;;19.21;37.90
57616;BME280;43816;52.054;-9.494;2023-02-13T00:21:44;102272.09;;;19.23;38.25
57616;BME280;43816;52.054;-9.494;2023-02-13T00:21:54;102276.41;;;19.26;37.83
57616;BME280;43816;52.054;-9.494;2023-02-13T00:22:05;102268.63;;;19.21;37.41
57616;BME280;43816;52.054;-9.494;2023-02-13T00:22:15;102263.44;;;19.18;37.90
57616;BME280;43816;52.054;-9.494;2023-02-13T00:22:25;102278.41;;;19.24;37.95
57616;BME280;43816;52.054;-9.494;2023-02-13T00:22:36;102273.81;;;19.25;37.98
57616;BME280;43816;52.054;-9.494;2023-02-13T00:22:47;102281.00;;;19.26;37.89
57616;BME280;43816;52.054;-9.494;2023-02-13T00:22:58;102272.50;;;19.19;38.12
57616;BME280;43816;52.054;-9.494;2023-02-13T00:23:08;102275.56;;;19.26;37.95
57616;BME280;43816;52.054;-9.494;2023-02-13T00:23:18;102272.09;;;19.23;37.98
57616;BME280;43816;52.054;-9.494;2023-02-13T00:23:30;102274.66;;;19.25;38.13
57616;BME280;43816;52.054;-9.494;2023-02-13T00:23:41;102257.41;;;19.15;37.95
57616;BME280;43816;52.054;-9.494;2023-02-13T00:23:51;102283.88;;;19.24;37.98
57616;BME280;43816;52.054;-9.494;2023-02-13T00:24:02;102283.75;;;19.26;37.80
57616;BME280;43816;52.054;-9.494;2023-02-13T00:24:12;102271.09;;;19.25;37.89
57616;BME280;43816;52.054;-9.494;2023-02-13T00:24:23;102278.41;;;19.24;37.72
57616;BME280;43816;52.054;-9.494;2023-02-13T00:24:33;102265.19;;;19.19;37.83
57616;BME280;43816;52.054;-9.494;2023-02-13T00:24:43;102278.28;;;19.26;37.81
57616;BME280;43816;52.054;-9.494;2023-02-13T00:24:53;102260.00;;;19.16;37.70
57616;BME280;43816;52.054;-9.494;2023-02-13T00:25:05;102281.00;;;19.26;37.47
57616;BME280;43816;52.054;-9.494;2023-02-13T00:25:16;102268.91;;;19.18;37.79
57616;BME280;43816;52.054;-9.494;2023-02-13T00:25:26;102280.28;;;19.23;37.64
57616;BME280;43816;52.054;-9.494;2023-02-13T00:25:37;102280.13;;;19.25;37.67
57616;BME280;43816;52.054;-9.494;2023-02-13T00:25:47;102280.56;;;19.20;37.57
57616;BME280;43816;52.054;-9.494;2023-02-13T00:25:59;102260.72;;;19.18;37.68
57616;BME280;43816;52.054;-9.494;2023-02-13T00:26:12;102271.09;;;19.25;37.46
57616;BME280;43816;52.054;-9.494;2023-02-13T00:26:23;102264.19;;;19.20;37.33
57616;BME280;43816;52.054;-9.494;2023-02-13T00:26:34;102237.28;;;19.06;37.23
57616;BME280;43816;52.054;-9.494;2023-02-13T00:26:44;102259.72;;;19.19;37.40
57616;BME280;43816;52.054;-9.494;2023-02-13T00:26:54;102252.84;;;19.15;37.33
57616;BME280;43816;52.054;-9.494;2023-02-13T00:27:04;102263.44;;;19.18;37.18
57616;BME280;43816;52.054;-9.494;2023-02-13T00:27:15;102254.53;;;19.16;37.51
57616;BME280;43816;52.054;-9.494;2023-02-13T00:27:25;102263.03;;;19.23;37.46
57616;BME280;43816;52.054;-9.494;2023-02-13T00:27:35;102263.91;;;19.23;37.22
57616;BME280;43816;52.054;-9.494;2023-02-13T00:27:46;102267.63;;;19.22;37.37
57616;BME280;43816;52.054;-9.494;2023-02-13T00:27:56;102250.97;;;19.16;37.25
57616;BME280;43816;52.054;-9.494;2023-02-13T00:28:06;102269.50;;;19.22;37.30
57616;BME280;43816;52.054;-9.494;2023-02-13T00:28:16;102271.22;;;19.23;37.27
57616;BME280;43816;52.054;-9.494;2023-02-13T00:28:27;102247.66;;;19.12;37.41
57616;BME280;43816;52.054;-9.494;2023-02-13T00:28:37;102258.16;;;19.17;37.39
57616;BME280;43816;52.054;-9.494;2023-02-13T00:28:48;102265.44;;;19.16;37.45
57616;BME280;43816;52.054;-9.494;2023-02-13T00:28:58;102270.38;;;19.22;37.44
57616;BME280;43816;52.054;-9.494;2023-02-13T00:29:08;102264.06;;;19.22;37.13
57616;BME280;43816;52.054;-9.494;2023-02-13T00:29:18;102261.59;;;19.19;37.24
57616;BME280;43816;52.054;-9.494;2023-02-13T00:29:29;102245.63;;;19.14;37.33
57616;BME280;43816;52.054;-9.494;2023-02-13T00:29:39;102254.53;;;19.16;37.48
57616;BME280;43816;52.054;-9.494;2023-02-13T00:29:49;102243.91;;;19.13;37.57
57616;BME280;43816;52.054;-9.494;2023-02-13T00:29:59;102249.66;;;19.20;37.57
57616;BME280;43816;52.054;-9.494;2023-02-13T00:30:10;102253.56;;;19.17;37.19
57616;BME280;43816;52.054;-9.494;2023-02-13T00:30:21;102254.41;;;19.18;37.71
57616;BME280;43816;52.054;-9.494;2023-02-13T00:30:31;102253.28;;;19.20;37.56
57616;BME280;43816;52.054;-9.494;2023-02-13T00:30:42;102241.16;;;19.13;37.70
57616;BME280;43816;52.054;-9.494;2023-02-13T00:30:52;102259.72;;;19.19;37.90
57616;BME280;43816;52.054;-9.494;2023-02-13T00:31:10;102228.06;;;18.97;37.70
57616;BME280;43816;52.054;-9.494;2023-02-13T00:31:21;102264.19;;;19.20;37.56
57616;BME280;43816;52.054;-9.494;2023-02-13T00:31:31;102256.00;;;19.20;37.75
57616;BME280;43816;52.054;-9.494;2023-02-13T00:31:41;102247.38;;;19.15;37.79
57616;BME280;43816;52.054;-9.494;2023-02-13T00:31:51;102244.19;;;19.10;37.57
57616;BME280;43816;52.054;-9.494;2023-02-13T00:32:02;102258.00;;;19.18;37.63
57616;BME280;43816;52.054;-9.494;2023-02-13T00:32:13;102266.03;;;19.20;37.72
57616;BME280;43816;52.054;-9.494;2023-02-13T00:32:24;102257.72;;;19.21;37.73
57616;BME280;43816;52.054;-9.494;2023-02-13T00:32:34;102260.44;;;19.21;37.86
57616;BME280;43816;52.054;-9.494;2023-02-13T00:32:44;102255.25;;;19.18;37.87
57616;BME280;43816;52.054;-9.494;2023-02-13T00:32:55;102262.31;;;19.21;37.82
57616;BME280;43816;52.054;-9.494;2023-02-13T00:33:05;102248.94;;;19.18;37.66
57616;BME280;43816;52.054;-9.494;2023-02-13T00:33:15;102244.91;;;19.12;37.86
57616;BME280;43816;52.054;-9.494;2023-02-13T00:33:25;102259.72;;;19.19;37.93
57616;BME280;43816;52.054;-9.494;2023-02-13T00:33:36;102245.63;;;19.14;38.09
57616;BME280;43816;52.054;-9.494;2023-02-13T00:33:48;102249.97;;;19.17;38.16
57616;BME280;43816;52.054;-9.494;2023-02-13T00:33:58;102248.09;;;19.17;37.93
57616;BME280;43816;52.054;-9.494;2023-02-13T00:34:09;102244.91;;;19.12;37.86
57616;BME280;43816;52.054;-9.494;2023-02-13T00:34:19;102228.66;;;19.01;37.60
57616;BME280;43816;52.054;-9.494;2023-02-13T00:34:29;102249.97;;;19.17;37.76
57616;BME280;43816;52.054;-9.494;2023-02-13T00:34:40;102253.41;;;19.19;37.93
57616;BME280;43816;52.054;-9.494;2023-02-13T00:34:50;102247.38;;;19.15;37.82
57616;BME280;43816;52.054;-9.494;2023-02-13T00:35:00;102257.72;;;19.21;37.71
57616;BME280;43816;52.054;-9.494;2023-02-13T00:35:10;102254.28;;;19.19;37.60
57616;BME280;43816;52.054;-9.494;2023-02-13T00:35:21;102249.09;;;19.16;37.63
57616;BME280;43816;52.054;-9.494;2023-02-13T00:35:31;102254.97;;;19.21;37.75
57616;BME280;43816;52.054;-9.494;2023-02-13T00:35:41;102253.28;;;19.20;37.55
57616;BME280;43816;52.054;-9.494;2023-02-13T00:36:01;102245.63;;;19.14;37.66
57616;BME280;43816;52.054;-9.494;2023-02-13T00:36:13;102245.63;;;19.14;37.72
57616;BME280;43816;52.054;-9.494;2023-02-13T00:36:24;102257.72;;;19.21;37.72
57616;BME280;43816;52.054;-9.494;2023-02-13T00:36:34;102246.09;;;19.19;37.53
57616;BME280;43816;52.054;-9.494;2023-02-13T00:36:45;102242.91;;;19.14;37.55
57616;BME280;43816;52.054;-9.494;2023-02-13T00:36:55;102247.97;;;19.19;37.47
57616;BME280;43816;52.054;-9.494;2023-02-13T00:37:05;102256.00;;;19.20;37.61
57616;BME280;43816;52.054;-9.494;2023-02-13T00:37:15;102238.75;;;19.10;37.53
57616;BME280;43816;52.054;-9.494;2023-02-13T00:37:26;102249.09;;;19.16;37.34
57616;BME280;43816;52.054;-9.494;2023-02-13T00:37:36;102243.63;;;19.16;37.50
57616;BME280;43816;52.054;-9.494;2023-02-13T00:37:46;102254.28;;;19.19;37.64
57616;BME280;43816;52.054;-9.494;2023-02-13T00:37:57;102228.69;;;19.11;37.42
57616;BME280;43816;52.054;-9.494;2023-02-13T00:38:07;102250.69;;;19.19;37.65
57616;BME280;43816;52.054;-9.494;2023-02-13T00:38:17;102241.16;;;19.13;37.46
57616;BME280;43816;52.054;-9.494;2023-02-13T00:38:29;102247.38;;;19.15;37.48
57616;BME280;43816;52.054;-9.494;2023-02-13T00:38:40;102256.28;;;19.17;37.63
57616;BME280;43816;52.054;-9.494;2023-02-13T00:38:52;102241.91;;;19.15;37.37
57616;BME280;43816;52.054;-9.494;2023-02-13T00:39:03;102248.81;;;19.19;37.40
57616;BME280;43816;52.054;-9.494;2023-02-13T00:39:13;102233.28;;;19.10;37.46
57616;BME280;43816;52.054;-9.494;2023-02-13T00:39:23;102232.13;;;19.13;37.43
57616;BME280;43816;52.054;-9.494;2023-02-13T00:39:34;102245.38;;;19.17;37.60
57616;BME280;43816;52.054;-9.494;2023-02-13T00:39:44;102242.50;;;19.19;37.43
57616;BME280;43816;52.054;-9.494;2023-02-13T00:39:54;102235.56;;;19.15;37.51
57616;BME280;43816;52.054;-9.494;2023-02-13T00:40:05;102237.44;;;19.14;37.50
57616;BME280;43816;52.054;-9.494;2023-02-13T00:40:15;102242.63;;;19.17;37.52
57616;BME280;43816;52.054;-9.494;2023-02-13T00:40:26;102249.97;;;19.17;37.57
57616;BME280;43816;52.054;-9.494;2023-02-13T00:40:36;102247.06;;;19.18;37.47
57616;BME280;43816;52.054;-9.494;2023-02-13T00:40:46;102253.41;;;19.19;37.55
57616;BME280;43816;52.054;-9.494;2023-02-13T00:40:56;102216.75;;;19.02;37.75
57616;BME280;43816;52.054;-9.494;2023-02-13T00:41:07;102254.28;;;19.19;37.62
57616;BME280;43816;52.054;-9.494;2023-02-13T00:41:18;102256.16;;;19.19;37.57
57616;BME280;43816;52.054;-9.494;2023-02-13T00:41:29;102254.28;;;19.19;37.42
57616;BME280;43816;52.054;-9.494;2023-02-13T00:41:39;102258.88;;;19.19;37.57
57616;BME280;43816;52.054;-9.494;2023-02-13T00:41:49;102252.09;;;19.13;37.75
57616;BME280;43816;52.054;-9.494;2023-02-13T00:41:59;102231.28;;;19.12;37.77
57616;BME280;43816;52.054;-9.494;2023-02-13T00:42:10;102242.50;;;19.19;37.68
57616;BME280;43816;52.054;-9.494;2023-02-13T00:42:20;102241.63;;;19.18;37.63
57616;BME280;43816;52.054;-9.494;2023-02-13T00:42:30;102232.72;;;19.16;37.63
57616;BME280;43816;52.054;-9.494;2023-02-13T00:42:40;102231.28;;;19.12;37.79
57616;BME280;43816;52.054;-9.494;2023-02-13T00:42:51;102244.34;;;19.18;37.66
57616;BME280;43816;52.054;-9.494;2023-02-13T00:43:01;102238.44;;;19.13;37.68
57616;BME280;43816;52.054;-9.494;2023-02-13T00:43:11;102231.56;;;19.09;37.79
57616;BME280;43816;52.054;-9.494;2023-02-13T00:43:22;102250.69;;;19.19;37.99
57616;BME280;43816;52.054;-9.494;2023-02-13T00:43:32;102244.66;;;19.15;37.96
57616;BME280;43816;52.054;-9.494;2023-02-13T00:43:43;102251.69;;;19.18;38.05
57616;BME280;43816;52.054;-9.494;2023-02-13T00:43:54;102241.03;;;19.15;38.12
57616;BME280;43816;52.054;-9.494;2023-02-13T00:44:04;102244.50;;;19.17;37.99
57616;BME280;43816;52.054;-9.494;2023-02-13T00:44:14;102244.34;;;19.18;38.00
57616;BME280;43816;52.054;-9.494;2023-02-13T00:44:25;102234.28;;;19.09;37.87
57616;BME280;43816;52.054;-9.494;2023-02-13T00:44:35;102239.31;;;19.14;38.04
57616;BME280;43816;52.054;-9.494;2023-02-13T00:44:45;102234.72;;;19.14;38.00
57616;BME280;43816;52.054;-9.494;2023-02-13T00:44:55;102236.75;;;19.12;38.23
57616;BME280;43816;52.054;-9.494;2023-02-13T00:45:06;102236.47;;;19.15;38.01
57616;BME280;43816;52.054;-9.494;2023-02-13T00:45:16;102232.28;;;19.11;38.04
57616;BME280;43816;52.054;-9.494;2023-02-13T00:45:27;102244.66;;;19.15;37.93
57616;BME280;43816;52.054;-9.494;2023-02-13T00:45:37;102225.09;;;19.10;37.80
57616;BME280;43816;52.054;-9.494;2023-02-13T00:45:47;102246.50;;;19.15;38.02
57616;BME280;43816;52.054;-9.494;2023-02-13T00:45:58;102245.38;;;19.17;37.92
57616;BME280;43816;52.054;-9.494;2023-02-13T00:46:08;102244.50;;;19.17;37.85
57616;BME280;43816;52.054;-9.494;2023-02-13T00:46:19;102237.88;;;19.10;37.88
57616;BME280;43816;52.054;-9.494;2023-02-13T00:46:29;102237.88;;;19.10;37.70
57616;BME280;43816;52.054;-9.494;2023-02-13T00:46:40;102256.28;;;19.17;37.75
57616;BME280;43816;52.054;-9.494;2023-02-13T00:46:50;102247.38;;;19.15;37.84
57616;BME280;43816;52.054;-9.494;2023-02-13T00:47:00;102238.00;;;19.08;37.80
57616;BME280;43816;52.054;-9.494;2023-02-13T00:47:10;102251.69;;;19.18;37.77
57616;BME280;43816;52.054;-9.494;2023-02-13T00:47:21;102249.09;;;19.16;37.81
57616;BME280;43816;52.054;-9.494;2023-02-13T00:47:31;102239.19;;;19.15;37.76
57616;BME280;43816;52.054;-9.494;2023-02-13T00:47:41;102229.81;;;19.08;37.65
57616;BME280;43816;52.054;-9.494;2023-02-13T00:47:52;102225.25;;;19.09;37.82
57616;BME280;43816;52.054;-9.494;2023-02-13T00:48:02;102235.84;;;19.12;37.73
57616;BME280;43816;52.054;-9.494;2023-02-13T00:48:12;102242.63;;;19.17;37.61
57616;BME280;43816;52.054;-9.494;2023-02-13T00:48:23;102244.78;;;19.14;37.50
57616;BME280;43816;52.054;-9.494;2023-02-13T00:48:34;102240.44;;;19.11;37.63
57616;BME280;43816;52.054;-9.494;2023-02-13T00:48:45;102230.69;;;19.09;37.79
57616;BME280;43816;52.054;-9.494;2023-02-13T00:48:55;102243.91;;;19.13;37.79
57616;BME280;43816;52.054;-9.494;2023-02-13T00:49:05;102248.09;;;19.17;37.92
57616;BME280;43816;52.054;-9.494;2023-02-13T00:49:16;102247.38;;;19.15;37.85
57616;BME280;43816;52.054;-9.494;2023-02-13T00:49:26;102228.09;;;19.07;37.97
57616;BME280;43816;52.054;-9.494;2023-02-13T00:49:36;102244.50;;;19.17;38.07
57616;BME280;43816;52.054;-9.494;2023-02-13T00:49:47;102250.81;;;19.17;38.02
57616;BME280;43816;52.054;-9.494;2023-02-13T00:49:57;102233.28;;;19.10;38.11
57616;BME280;43816;52.054;-9.494;2023-02-13T00:50:07;102243.03;;;19.13;38.11
57616;BME280;43816;52.054;-9.494;2023-02-13T00:50:18;102243.75;;;19.15;38.19
57616;BME280;43816;52.054;-9.494;2023-02-13T00:50:28;102242.78;;;19.16;38.27
57616;BME280;43816;52.054;-9.494;2023-02-13T00:50:38;102249.09;;;19.16;38.16
57616;BME280;43816;52.054;-9.494;2023-02-13T00:50:49;102247.38;;;19.15;38.02
57616;BME280;43816;52.054;-9.494;2023-02-13T00:51:00;102245.63;;;19.14;38.30
57616;BME280;43816;52.054;-9.494;2023-02-13T00:51:10;102234.16;;;19.11;38.01
57616;BME280;43816;52.054;-9.494;2023-02-13T00:51:20;102245.06;;;19.11;38.12
57616;BME280;43816;52.054;-9.494;2023-02-13T00:51:31;102250.81;;;19.17;38.10
57616;BME280;43816;52.054;-9.494;2023-02-13T00:51:41;102237.72;;;19.11;37.92
57616;BME280;43816;52.054;-9.494;2023-02-13T00:51:52;102234.28;;;19.09;38.00
57616;BME280;43816;52.054;-9.494;2023-02-13T00:52:02;102248.50;;;19.13;37.89
57616;BME280;43816;52.054;-9.494;2023-02-13T00:52:12;102254.41;;;19.18;37.98
57616;BME280;43816;52.054;-9.494;2023-02-13T00:52:23;102256.28;;;19.17;37.98
57616;BME280;43816;52.054;-9.494;2023-02-13T00:52:33;102234.41;;;19.08;38.00
57616;BME280;43816;52.054;-9.494;2023-02-13T00:52:43;102227.34;;;19.05;37.93
57616;BME280;43816;52.054;-9.494;2023-02-13T00:52:54;102240.44;;;19.11;37.98
57616;BME280;43816;52.054;-9.494;2023-02-13T00:53:04;102245.63;;;19.14;38.08
57616;BME280;43816;52.054;-9.494;2023-02-13T00:53:14;102249.22;;;19.15;38.00
57616;BME280;43816;52.054;-9.494;2023-02-13T00:53:25;102247.38;;;19.15;38.08
57616;BME280;43816;52.054;-9.494;2023-02-13T00:53:36;102242.47;;;19.09;37.93
57616;BME280;43816;52.054;-9.494;2023-02-13T00:53:47;102242.47;;;19.09;38.00
57616;BME280;43816;52.054;-9.494;2023-02-13T00:53:57;102252.69;;;19.17;37.93
57616;BME280;43816;52.054;-9.494;2023-02-13T00:54:07;102249.09;;;19.16;38.07
57616;BME280;43816;52.054;-9.494;2023-02-13T00:54:17;102251.94;;;19.15;38.21
57616;BME280;43816;52.054;-9.494;2023-02-13T00:54:28;102254.53;;;19.16;37.99
57616;BME280;43816;52.054;-9.494;2023-02-13T00:54:38;102255.44;;;19.17;38.05